createdAt,value
2018-09-11T00:00:06.267Z,2.93
2018-09-11T00:02:33.107Z,2.67
2018-09-11T00:04:59.983Z,2.30
2018-09-11T00:07:26.807Z,2.63
2018-09-11T00:09:53.627Z,2.50
2018-09-11T00:12:20.448Z,2.83
2018-09-11T00:14:47.368Z,2.90
2018-09-11T00:17:14.379Z,3.03
2018-09-11T00:19:41.193Z,2.43
2018-09-11T00:22:08.020Z,3.00
2018-09-11T00:24:34.932Z,2.43
2018-09-11T00:27:01.751Z,2.97
2018-09-11T00:29:28.575Z,2.60
2018-09-11T00:31:55.399Z,2.20
2018-09-11T00:34:22.301Z,2.63
2018-09-11T00:36:49.131Z,2.60
2018-09-11T00:39:15.957Z,2.40
2018-09-11T00:41:42.770Z,3.30
2018-09-11T00:44:09.664Z,2.83
2018-09-11T00:46:36.490Z,2.70
2018-09-11T00:49:03.319Z,2.50
2018-09-11T00:51:30.154Z,2.63
2018-09-11T00:53:57.049Z,2.50
2018-09-11T00:56:23.874Z,2.27
2018-09-11T00:58:50.707Z,2.90
2018-09-11T01:01:17.539Z,2.53
2018-09-11T01:03:44.370Z,2.40
2018-09-11T01:06:11.198Z,2.90
2018-09-11T01:08:38.023Z,2.60
2018-09-11T01:11:04.850Z,2.90
2018-09-11T01:13:31.684Z,2.53
2018-09-11T01:15:58.509Z,2.60
2018-09-11T01:18:25.341Z,2.83
2018-09-11T01:20:52.187Z,2.10
2018-09-11T01:23:19.010Z,3.03
2018-09-11T01:25:46.006Z,2.60
2018-09-11T01:28:12.817Z,2.50
2018-09-11T01:30:39.655Z,2.50
2018-09-11T01:33:06.487Z,2.57
2018-09-11T01:35:33.372Z,2.60
2018-09-11T01:38:00.194Z,2.47
2018-09-11T01:40:27.015Z,2.40
2018-09-11T01:42:53.845Z,3.13
2018-09-11T01:45:20.748Z,2.30
2018-09-11T01:47:47.561Z,2.77
2018-09-11T01:50:14.393Z,2.43
2018-09-11T01:52:41.214Z,2.50
2018-09-11T01:55:08.114Z,3.00
2018-09-11T01:57:34.943Z,2.20
2018-09-11T02:00:01.783Z,2.37
2018-09-11T02:02:28.599Z,2.87
2018-09-11T02:04:55.436Z,2.80
2018-09-11T02:07:22.267Z,2.77
2018-09-11T02:09:49.094Z,3.07
2018-09-11T02:12:15.934Z,2.60
2018-09-11T02:14:42.858Z,2.67
2018-09-11T02:17:10.084Z,2.80
2018-09-11T02:19:36.882Z,2.87
2018-09-11T02:22:03.710Z,2.50
2018-09-11T02:24:30.640Z,2.90
2018-09-11T02:26:57.465Z,2.97
2018-09-11T02:29:24.295Z,2.53
2018-09-11T02:31:51.134Z,3.07
2018-09-11T02:34:18.006Z,2.50
2018-09-11T02:36:44.839Z,2.27
2018-09-11T02:39:11.671Z,2.63
2018-09-11T02:41:38.509Z,2.80
2018-09-11T02:44:05.393Z,3.07
2018-09-11T02:46:32.218Z,2.57
2018-09-11T02:48:59.071Z,3.00
2018-09-11T02:51:25.898Z,2.47
2018-09-11T02:53:52.755Z,2.93
2018-09-11T02:56:19.578Z,2.90
2018-09-11T02:58:46.414Z,3.20
2018-09-11T03:01:13.246Z,2.60
2018-09-11T03:03:40.078Z,2.40
2018-09-11T03:06:06.908Z,3.00
2018-09-11T03:08:33.743Z,2.83
2018-09-11T03:11:00.593Z,2.70
2018-09-11T03:13:27.433Z,2.60
2018-09-11T03:15:54.284Z,2.90
2018-09-11T03:18:21.123Z,2.73
2018-09-11T03:20:47.942Z,3.00
2018-09-11T03:23:14.874Z,3.07
2018-09-11T03:25:41.711Z,3.33
2018-09-11T03:28:08.545Z,2.97
2018-09-11T03:30:35.374Z,3.13
2018-09-11T03:33:02.198Z,2.67
2018-09-11T03:35:29.129Z,3.40
2018-09-11T03:37:55.956Z,3.00
2018-09-11T03:40:22.784Z,2.77
2018-09-11T03:42:49.609Z,2.70
2018-09-11T03:45:16.464Z,2.93
2018-09-11T03:47:43.282Z,2.70
2018-09-11T03:50:10.120Z,3.00
2018-09-11T03:52:36.946Z,3.30
2018-09-11T03:55:03.820Z,3.60
2018-09-11T03:57:30.644Z,3.30
2018-09-11T03:59:57.468Z,3.30
2018-09-11T04:02:24.298Z,2.57
2018-09-11T04:04:51.199Z,3.20
2018-09-11T04:07:18.024Z,3.17
2018-09-11T04:09:44.849Z,3.00
2018-09-11T04:12:11.667Z,3.30
2018-09-11T04:14:38.570Z,2.47
2018-09-11T04:17:05.405Z,3.03
2018-09-11T04:19:32.227Z,2.90
2018-09-11T04:21:59.055Z,2.80
2018-09-11T04:24:25.946Z,3.93
2018-09-11T04:26:52.771Z,3.50
2018-09-11T04:29:19.597Z,3.77
2018-09-11T04:31:46.421Z,4.00
2018-09-11T04:34:13.519Z,2.90
2018-09-11T04:36:40.343Z,3.20
2018-09-11T04:39:07.171Z,3.47
2018-09-11T04:41:33.991Z,3.63
2018-09-11T04:44:00.955Z,3.30
2018-09-11T04:46:27.761Z,3.40
2018-09-11T04:48:54.582Z,4.20
2018-09-11T04:51:21.560Z,3.20
2018-09-11T04:53:48.384Z,3.10
2018-09-11T04:56:15.320Z,2.97
2018-09-11T04:58:42.177Z,3.30
2018-09-11T05:01:09.003Z,3.20
2018-09-11T05:03:35.831Z,3.30
2018-09-11T05:06:02.673Z,3.10
2018-09-11T05:08:29.569Z,3.83
2018-09-11T05:10:56.397Z,3.80
2018-09-11T05:13:23.231Z,3.60
2018-09-11T05:15:50.141Z,3.80
2018-09-11T05:18:16.990Z,2.87
2018-09-11T05:20:43.811Z,3.33
2018-09-11T05:23:10.659Z,3.13
2018-09-11T05:25:37.631Z,2.77
2018-09-11T05:28:04.466Z,3.17
2018-09-11T05:30:31.283Z,3.30
2018-09-11T05:32:58.110Z,3.20
2018-09-11T05:35:25.007Z,3.23
2018-09-11T05:37:51.827Z,2.83
2018-09-11T05:40:18.731Z,3.20
2018-09-11T05:42:45.529Z,3.40
2018-09-11T05:45:12.381Z,3.33
2018-09-11T05:47:39.215Z,3.47
2018-09-11T05:50:06.040Z,3.90
2018-09-11T05:52:32.875Z,2.93
2018-09-11T05:54:59.756Z,3.03
2018-09-11T05:57:26.588Z,3.80
2018-09-11T05:59:53.422Z,3.37
2018-09-11T06:02:20.653Z,3.70
2018-09-11T06:04:47.527Z,3.60
2018-09-11T06:07:14.371Z,3.50
2018-09-11T06:09:41.179Z,3.23
2018-09-11T06:12:08.004Z,3.80
2018-09-11T06:14:34.904Z,3.30
2018-09-11T06:17:01.770Z,3.60
2018-09-11T06:19:28.579Z,3.63
2018-09-11T06:21:55.427Z,3.57
2018-09-11T06:24:22.272Z,3.63
2018-09-11T06:26:49.112Z,3.00
2018-09-11T06:29:16.114Z,4.33
2018-09-11T06:31:42.803Z,4.10
2018-09-11T06:34:09.670Z,3.30
2018-09-11T06:36:36.481Z,4.37
2018-09-11T06:39:03.310Z,3.70
2018-09-11T06:41:31.088Z,3.73
2018-09-11T06:43:58.044Z,3.93
2018-09-11T06:46:24.870Z,3.70
2018-09-11T06:48:51.691Z,3.63
2018-09-11T06:51:18.543Z,3.43
2018-09-11T06:53:45.386Z,3.90
2018-09-11T06:56:12.208Z,3.50
2018-09-11T06:58:39.074Z,4.20
2018-09-11T07:01:05.984Z,3.10
2018-09-11T07:03:32.827Z,3.70
2018-09-11T07:05:59.706Z,3.50
2018-09-11T07:08:26.553Z,3.50
2018-09-11T07:10:53.358Z,3.80
2018-09-11T07:13:20.210Z,3.73
2018-09-11T07:15:47.208Z,3.47
2018-09-11T07:18:14.052Z,3.97
2018-09-11T07:20:40.883Z,3.70
2018-09-11T07:23:07.722Z,3.57
2018-09-11T07:25:34.574Z,3.60
2018-09-11T07:28:01.418Z,5.00
2018-09-11T07:30:28.311Z,3.73
2018-09-11T07:32:55.075Z,3.40
2018-09-11T07:35:21.953Z,4.40
2018-09-11T07:37:48.835Z,3.53
2018-09-11T07:40:15.607Z,4.10
2018-09-11T07:42:42.435Z,4.50
2018-09-11T07:45:09.312Z,3.80
2018-09-11T07:47:36.166Z,3.83
2018-09-11T07:50:02.992Z,3.80
2018-09-11T07:52:29.888Z,4.23
2018-09-11T07:54:56.685Z,4.00
2018-09-11T07:57:23.548Z,3.87
2018-09-11T07:59:50.346Z,3.30
2018-09-11T08:02:18.047Z,4.37
2018-09-11T08:04:44.886Z,3.47
2018-09-11T08:07:11.723Z,3.60
2018-09-11T08:09:38.631Z,3.77
2018-09-11T08:12:05.537Z,3.83
2018-09-11T08:14:32.461Z,3.97
2018-09-11T08:16:59.297Z,3.83
2018-09-11T08:19:26.195Z,3.87
2018-09-11T08:21:53.017Z,3.83
2018-09-11T08:24:19.867Z,3.53
2018-09-11T08:26:46.783Z,3.10
2018-09-11T08:29:13.719Z,3.50
2018-09-11T08:31:40.551Z,3.60
2018-09-11T08:34:07.419Z,3.43
2018-09-11T08:36:34.258Z,3.40
2018-09-11T08:39:01.072Z,3.00
2018-09-11T08:41:27.902Z,3.40
2018-09-11T08:43:54.779Z,3.60
2018-09-11T08:46:21.592Z,3.50
2018-09-11T08:48:48.435Z,3.70
2018-09-11T08:51:15.258Z,3.30
2018-09-11T08:53:42.076Z,4.00
2018-09-11T08:56:08.902Z,3.93
2018-09-11T08:58:35.774Z,3.07
2018-09-11T09:01:02.629Z,3.20
2018-09-11T09:03:29.458Z,4.20
2018-09-11T09:05:56.301Z,3.00
2018-09-11T09:08:23.114Z,3.37
2018-09-11T09:10:49.980Z,3.40
2018-09-11T09:13:16.830Z,3.43
2018-09-11T09:15:43.878Z,3.90
2018-09-11T09:18:10.644Z,3.20
2018-09-11T09:20:37.463Z,3.27
2018-09-11T09:23:04.345Z,3.73
2018-09-11T09:25:31.323Z,3.33
2018-09-11T09:27:58.150Z,3.33
2018-09-11T09:30:24.973Z,3.73
2018-09-11T09:32:51.863Z,3.00
2018-09-11T09:35:18.912Z,3.10
2018-09-11T09:37:45.734Z,3.23
2018-09-11T09:40:12.566Z,3.80
2018-09-11T09:42:39.422Z,3.00
2018-09-11T09:45:06.311Z,2.90
2018-09-11T09:47:33.096Z,3.80
2018-09-11T09:49:59.918Z,3.13
2018-09-11T09:52:26.750Z,3.50
2018-09-11T09:54:53.629Z,3.00
2018-09-11T09:57:20.453Z,3.30
2018-09-11T09:59:47.280Z,3.10
2018-09-11T10:02:14.429Z,2.90
2018-09-11T10:04:41.415Z,2.97
2018-09-11T10:07:08.321Z,2.83
2018-09-11T10:09:35.155Z,3.10
2018-09-11T10:12:02.018Z,3.20
2018-09-11T10:14:28.993Z,2.97
2018-09-11T10:16:55.814Z,3.87
2018-09-11T10:19:22.663Z,3.63
2018-09-11T10:21:49.485Z,4.53
2018-09-11T10:24:16.350Z,5.67
2018-09-11T10:26:43.181Z,5.57
2018-09-11T10:29:10.011Z,4.80
2018-09-11T10:31:36.845Z,5.30
2018-09-11T10:34:03.724Z,5.90
2018-09-11T10:36:30.552Z,4.43
2018-09-11T10:38:57.470Z,4.83
2018-09-11T10:41:24.300Z,5.80
2018-09-11T10:43:51.302Z,4.93
2018-09-11T10:46:18.134Z,5.03
2018-09-11T10:48:45.003Z,4.90
2018-09-11T10:51:11.784Z,5.53
2018-09-11T10:53:38.616Z,4.97
2018-09-11T10:56:05.443Z,5.73
2018-09-11T10:58:32.270Z,4.60
2018-09-11T11:00:59.137Z,5.70
2018-09-11T11:03:25.975Z,4.90
2018-09-11T11:05:52.794Z,5.20
2018-09-11T11:08:19.772Z,5.23
2018-09-11T11:10:46.586Z,5.30
2018-09-11T11:13:13.425Z,4.87
2018-09-11T11:15:40.255Z,5.40
2018-09-11T11:18:07.103Z,4.80
2018-09-11T11:20:33.925Z,5.90
2018-09-11T11:23:00.752Z,4.70
2018-09-11T11:25:27.636Z,5.20
2018-09-11T11:27:54.460Z,4.47
2018-09-11T11:30:21.284Z,4.37
2018-09-11T11:32:48.107Z,5.37
2018-09-11T11:35:15.008Z,4.13
2018-09-11T11:37:41.841Z,4.50
2018-09-11T11:40:08.666Z,4.07
2018-09-11T11:42:35.575Z,5.23
2018-09-11T11:45:02.408Z,5.57
2018-09-11T11:47:29.231Z,5.63
2018-09-11T11:49:56.048Z,4.70
2018-09-11T11:52:22.918Z,4.87
2018-09-11T11:54:49.880Z,4.83
2018-09-11T11:57:16.645Z,4.40
2018-09-11T11:59:43.460Z,4.67
2018-09-11T12:02:10.353Z,5.03
2018-09-11T12:04:37.118Z,4.87
2018-09-11T12:07:03.937Z,4.50
2018-09-11T12:09:30.758Z,4.40
2018-09-11T12:11:57.579Z,4.67
2018-09-11T12:14:24.505Z,4.60
2018-09-11T12:16:51.343Z,4.57
2018-09-11T12:19:18.168Z,4.40
2018-09-11T12:21:45.002Z,3.87
2018-09-11T12:24:11.870Z,4.50
2018-09-11T12:26:38.719Z,4.43
2018-09-11T12:29:05.552Z,3.53
2018-09-11T12:31:32.382Z,4.30
2018-09-11T12:33:59.241Z,3.83
2018-09-11T12:36:26.105Z,4.43
2018-09-11T12:38:52.971Z,3.70
2018-09-11T12:41:19.821Z,4.57
2018-09-11T12:43:46.836Z,3.90
2018-09-11T12:46:13.925Z,3.90
2018-09-11T12:48:40.794Z,4.00
2018-09-11T12:51:07.548Z,3.93
2018-09-11T12:53:34.403Z,4.10
2018-09-11T12:56:01.223Z,3.53
2018-09-11T12:58:28.074Z,3.60
2018-09-11T13:00:54.901Z,3.77
2018-09-11T13:03:21.728Z,4.10
2018-09-11T13:05:48.577Z,3.70
2018-09-11T13:08:15.399Z,4.00
2018-09-11T13:10:43.011Z,4.10
2018-09-11T13:13:09.942Z,3.50
2018-09-11T13:15:36.793Z,3.70
2018-09-11T13:18:03.626Z,3.80
2018-09-11T13:20:30.458Z,3.90
2018-09-11T13:22:57.269Z,3.70
2018-09-11T13:25:24.191Z,3.97
2018-09-11T13:27:51.008Z,4.23
2018-09-11T13:30:17.832Z,3.63
2018-09-11T13:32:44.651Z,3.53
2018-09-11T13:35:11.539Z,3.80
2018-09-11T13:37:38.389Z,4.00
2018-09-11T13:40:05.235Z,3.60
2018-09-11T13:42:32.055Z,3.47
2018-09-11T13:44:58.921Z,3.40
2018-09-11T13:47:26.596Z,3.80
2018-09-11T13:49:53.501Z,4.20
2018-09-11T13:52:20.322Z,3.67
2018-09-11T13:54:47.341Z,3.67
2018-09-11T13:57:14.191Z,3.67
2018-09-11T13:59:41.040Z,3.77
2018-09-11T14:02:07.860Z,3.57
2018-09-11T14:04:34.947Z,3.50
2018-09-11T14:07:01.793Z,3.00
2018-09-11T14:09:28.626Z,3.57
2018-09-11T14:11:55.457Z,3.67
2018-09-11T14:14:22.458Z,3.70
2018-09-11T14:16:49.303Z,3.23
2018-09-11T14:19:16.128Z,4.40
2018-09-11T14:21:42.978Z,3.90
2018-09-11T14:24:09.894Z,3.30
2018-09-11T14:26:36.779Z,3.57
2018-09-11T14:29:03.566Z,3.90
2018-09-11T14:31:30.411Z,3.40
2018-09-11T14:33:57.404Z,3.70
2018-09-11T14:36:24.226Z,4.70
2018-09-11T14:38:51.056Z,3.43
2018-09-11T14:41:17.890Z,3.40
2018-09-11T14:43:44.780Z,3.60
2018-09-11T14:46:11.595Z,3.43
2018-09-11T14:48:38.412Z,4.43
2018-09-11T14:51:05.341Z,3.37
2018-09-11T14:53:32.181Z,3.50
2018-09-11T14:55:58.999Z,3.57
2018-09-11T14:58:25.846Z,3.60
2018-09-11T15:00:52.697Z,3.93
2018-09-11T15:03:19.541Z,4.00
2018-09-11T15:05:46.362Z,3.83
2018-09-11T15:08:13.202Z,3.30
2018-09-11T15:10:40.027Z,4.13
2018-09-11T15:13:06.912Z,4.00
2018-09-11T15:15:33.741Z,4.00
2018-09-11T15:18:00.579Z,3.80
2018-09-11T15:20:27.391Z,3.33
2018-09-11T15:22:54.242Z,3.50
2018-09-11T15:25:21.109Z,4.43
2018-09-11T15:27:47.989Z,3.47
2018-09-11T15:30:15.162Z,3.70
2018-09-11T15:32:42.001Z,3.93
2018-09-11T15:35:09.194Z,3.70
2018-09-11T15:37:36.030Z,3.77
2018-09-11T15:40:02.863Z,3.40
2018-09-11T15:42:29.697Z,3.80
2018-09-11T15:44:56.674Z,4.90
2018-09-11T15:47:24.371Z,8.87
2018-09-11T15:49:51.175Z,6.73
2018-09-11T15:52:18.005Z,4.50
2018-09-11T15:54:44.855Z,3.70
2018-09-11T15:57:11.682Z,4.00
2018-09-11T15:59:38.510Z,4.10
2018-09-11T16:02:05.367Z,3.93
2018-09-11T16:04:32.238Z,4.23
2018-09-11T16:06:59.150Z,4.00
2018-09-11T16:09:25.906Z,3.70
2018-09-11T16:11:52.751Z,4.23
2018-09-11T16:14:19.626Z,3.70
2018-09-11T16:16:46.567Z,4.10
2018-09-11T16:19:13.395Z,4.30
2018-09-11T16:21:40.262Z,4.07
2018-09-11T16:24:07.189Z,3.93
2018-09-11T16:26:34.006Z,3.77
2018-09-11T16:29:00.837Z,3.67
2018-09-11T16:31:27.649Z,3.53
2018-09-11T16:33:54.552Z,3.67
2018-09-11T16:36:21.369Z,4.03
2018-09-11T16:38:48.207Z,4.33
2018-09-11T16:41:15.025Z,5.00
2018-09-11T16:43:41.858Z,4.13
2018-09-11T16:46:08.686Z,5.80
2018-09-11T16:48:35.520Z,5.57
2018-09-11T16:51:02.365Z,5.70
2018-09-11T16:53:29.193Z,5.40
2018-09-11T16:55:56.033Z,6.20
2018-09-11T16:58:22.871Z,6.40
2018-09-11T17:00:49.716Z,5.20
2018-09-11T17:03:16.553Z,5.00
2018-09-11T17:05:43.504Z,5.50
2018-09-11T17:08:10.324Z,6.00
2018-09-11T17:10:37.145Z,4.73
2018-09-11T17:13:03.973Z,4.53
2018-09-11T17:15:30.909Z,5.43
2018-09-11T17:17:57.736Z,5.50
2018-09-11T17:20:25.000Z,4.70
2018-09-11T17:22:52.784Z,4.43
2018-09-11T17:25:21.292Z,4.40
2018-09-11T17:27:48.101Z,4.83
2018-09-11T17:30:14.983Z,5.53
2018-09-11T17:32:41.833Z,5.33
2018-09-11T17:35:09.544Z,4.70
2018-09-11T17:37:36.352Z,4.70
2018-09-11T17:40:03.213Z,4.20
2018-09-11T17:42:30.036Z,4.90
2018-09-11T17:44:56.896Z,4.63
2018-09-11T17:47:24.388Z,3.33
2018-09-11T17:49:51.219Z,4.50
2018-09-11T17:52:18.057Z,3.90
2018-09-11T17:54:45.098Z,4.10
2018-09-11T17:57:11.932Z,4.20
2018-09-11T17:59:38.740Z,4.40
2018-09-11T18:02:05.569Z,4.30
2018-09-11T18:04:32.542Z,4.40
2018-09-11T18:06:59.381Z,4.43
2018-09-11T18:09:26.479Z,3.90
2018-09-11T18:14:35.488Z,4.00
2018-09-11T18:17:02.575Z,3.73
2018-09-11T18:19:29.717Z,4.03
2018-09-11T18:21:56.865Z,4.17
2018-09-11T18:24:24.089Z,4.33
2018-09-11T18:26:51.169Z,4.33
2018-09-11T18:29:18.324Z,3.83
2018-09-11T18:31:45.443Z,3.80
2018-09-11T18:34:12.564Z,3.50
2018-09-11T18:36:39.679Z,3.20
2018-09-11T18:39:06.887Z,4.00
2018-09-11T18:41:33.965Z,5.13
2018-09-11T18:44:02.250Z,4.17
2018-09-11T18:46:29.291Z,3.57
2018-09-11T18:48:56.436Z,3.70
2018-09-11T18:51:23.534Z,3.37
2018-09-11T18:53:50.667Z,3.37
2018-09-11T18:56:18.094Z,3.33
2018-09-11T18:58:45.041Z,3.70
2018-09-11T19:01:11.962Z,3.57
2018-09-11T19:06:16.898Z,3.60
2018-09-11T19:08:44.080Z,3.93
2018-09-11T19:11:11.264Z,3.20
2018-09-11T19:13:38.384Z,4.30
2018-09-11T19:18:58.443Z,3.90
2018-09-11T19:21:26.890Z,2.97
2018-09-11T19:23:54.941Z,3.30
2018-09-11T19:29:03.685Z,3.33
2018-09-11T19:31:30.934Z,3.10
2018-09-11T19:33:58.308Z,3.30
2018-09-11T19:36:25.440Z,4.00
2018-09-11T19:38:52.599Z,3.40
2018-09-11T19:41:19.885Z,3.60
2018-09-11T19:43:47.225Z,3.50
2018-09-11T19:46:18.852Z,3.27
2018-09-11T19:49:01.053Z,3.80
2018-09-11T19:51:32.080Z,3.80
2018-09-11T19:53:59.452Z,3.43
2018-09-11T19:56:26.602Z,3.57
2018-09-11T20:01:43.943Z,3.60
2018-09-11T20:09:34.266Z,4.67
2018-09-11T20:12:01.420Z,3.70
2018-09-11T20:14:29.396Z,3.50
2018-09-11T20:16:56.548Z,4.27
2018-09-11T20:19:23.849Z,3.07
2018-09-11T20:21:51.967Z,3.80
2018-09-11T20:24:19.119Z,3.03
2018-09-11T20:26:46.161Z,3.67
2018-09-11T20:29:13.934Z,3.70
2018-09-11T20:31:41.592Z,4.27
2018-09-11T20:34:08.816Z,4.20
2018-09-11T20:39:17.067Z,3.80
2018-09-11T20:41:45.141Z,4.03
2018-09-11T21:08:41.004Z,3.30
2018-09-11T21:11:17.191Z,3.40
2018-09-11T21:13:51.257Z,3.30
2018-09-11T21:16:18.303Z,3.20
2018-09-11T21:18:58.562Z,3.17
2018-09-11T21:21:26.376Z,3.20
2018-09-11T21:23:54.136Z,3.57
2018-09-11T21:29:26.388Z,3.57
2018-09-11T21:31:54.243Z,3.47
2018-09-11T21:34:21.344Z,3.07
2018-09-11T21:36:48.388Z,3.07
2018-09-11T21:39:15.471Z,3.70
2018-09-11T21:41:42.405Z,3.70
2018-09-11T21:44:09.565Z,3.03
2018-09-11T21:46:36.526Z,3.70
2018-09-11T21:49:03.574Z,3.70
2018-09-11T21:51:31.391Z,3.63
2018-09-11T21:53:58.486Z,2.93
2018-09-11T21:56:25.488Z,3.60
2018-09-11T21:58:54.174Z,3.93
2018-09-11T22:01:21.367Z,3.00
2018-09-11T22:03:49.217Z,3.17
2018-09-11T22:06:16.487Z,3.43
2018-09-11T22:08:43.694Z,3.10
2018-09-11T22:11:11.501Z,3.50
2018-09-11T22:13:38.550Z,2.63
2018-09-11T22:16:05.758Z,3.23
2018-09-11T22:18:32.744Z,3.13
2018-09-11T22:20:59.750Z,3.50
2018-09-11T22:23:26.778Z,2.70
2018-09-11T22:25:53.781Z,3.30
2018-09-11T22:28:20.831Z,3.23
2018-09-11T22:30:47.878Z,3.60
2018-09-11T22:33:14.817Z,3.20
2018-09-11T22:35:42.040Z,3.37
2018-09-11T22:38:09.085Z,3.37
2018-09-11T22:40:36.107Z,2.93
2018-09-11T22:43:03.412Z,3.03
2018-09-11T22:45:30.434Z,3.40
2018-09-11T22:47:57.379Z,3.23
2018-09-11T22:50:24.535Z,3.27
2018-09-11T22:52:51.812Z,3.10
2018-09-11T22:55:19.135Z,3.17
2018-09-11T22:57:46.867Z,3.30
2018-09-11T23:03:03.552Z,3.43
2018-09-11T23:05:31.700Z,3.70
2018-09-11T23:07:59.463Z,3.00
2018-09-11T23:10:26.512Z,3.37
2018-09-11T23:20:57.916Z,3.23
2018-09-11T23:29:21.647Z,3.17
2018-09-11T23:31:50.823Z,2.83
2018-09-11T23:37:06.319Z,3.10
2018-09-11T23:39:34.293Z,2.80
2018-09-11T23:47:16.732Z,2.93
2018-09-11T23:49:43.884Z,3.03
2018-09-11T23:52:18.610Z,3.20
2018-09-11T23:54:46.069Z,3.30
2018-09-11T23:57:13.123Z,3.30
2018-09-11T23:59:40.266Z,3.20
